createdAt,value
2019-05-06T00:00:59.333Z,59.80
2019-05-06T00:03:24.737Z,59.80
2019-05-06T00:05:51.105Z,60.00
2019-05-06T00:08:17.260Z,60.10
2019-05-06T00:10:44.722Z,60.10
2019-05-06T00:13:11.116Z,60.20
2019-05-06T00:15:37.285Z,60.50
2019-05-06T00:18:04.485Z,60.40
2019-05-06T00:20:31.380Z,60.50
2019-05-06T00:22:59.527Z,60.60
2019-05-06T00:25:44.592Z,60.40
2019-05-06T00:28:29.441Z,60.40
2019-05-06T00:31:09.371Z,60.30
2019-05-06T00:33:25.637Z,60.60
2019-05-06T00:35:53.758Z,60.60
2019-05-06T00:38:19.980Z,60.70
2019-05-06T00:41:00.165Z,60.70
2019-05-06T00:43:26.353Z,60.70
2019-05-06T00:45:53.675Z,60.80
2019-05-06T00:48:19.977Z,61.00
2019-05-06T00:50:46.200Z,61.00
2019-05-06T00:53:14.270Z,61.20
2019-05-06T00:55:40.422Z,61.20
2019-05-06T00:58:06.702Z,61.40
2019-05-06T01:00:34.951Z,61.30
2019-05-06T01:03:01.101Z,61.50
2019-05-06T01:05:27.301Z,61.70
2019-05-06T01:07:54.911Z,61.60
2019-05-06T01:10:23.698Z,61.80
2019-05-06T01:12:51.685Z,61.80
2019-05-06T01:15:20.200Z,61.90
2019-05-06T01:17:46.435Z,61.80
2019-05-06T01:20:13.903Z,61.90
2019-05-06T01:22:40.152Z,61.80
2019-05-06T01:25:06.526Z,61.90
2019-05-06T01:27:33.756Z,61.90
2019-05-06T01:30:00.089Z,61.90
2019-05-06T01:32:26.239Z,61.90
2019-05-06T01:34:53.679Z,62.00
2019-05-06T01:37:20.876Z,62.00
2019-05-06T01:40:05.134Z,62.00
2019-05-06T01:42:34.424Z,62.00
2019-05-06T01:45:00.771Z,62.20
2019-05-06T01:47:26.952Z,62.30
2019-05-06T01:49:53.801Z,62.30
2019-05-06T01:52:20.126Z,61.90
2019-05-06T01:54:46.406Z,62.50
2019-05-06T01:57:13.709Z,62.60
2019-05-06T01:59:40.024Z,62.50
2019-05-06T02:02:06.571Z,62.50
2019-05-06T02:04:33.751Z,62.50
2019-05-06T02:07:00.114Z,62.50
2019-05-06T02:09:26.301Z,62.50
2019-05-06T02:11:53.656Z,62.50
2019-05-06T02:14:20.044Z,62.50
2019-05-06T02:16:46.263Z,62.50
2019-05-06T02:19:14.646Z,62.50
2019-05-06T02:21:43.814Z,62.40
2019-05-06T02:24:15.016Z,62.40
2019-05-06T02:26:41.181Z,62.50
2019-05-06T02:29:09.302Z,62.50
2019-05-06T02:32:15.386Z,62.60
2019-05-06T02:34:36.489Z,62.70
2019-05-06T02:37:06.380Z,62.80
2019-05-06T02:39:34.101Z,62.80
2019-05-06T02:42:00.272Z,62.80
2019-05-06T02:44:26.448Z,62.70
2019-05-06T02:46:54.505Z,62.70
2019-05-06T02:49:23.677Z,62.60
2019-05-06T02:51:53.250Z,62.90
2019-05-06T02:54:18.121Z,62.90
2019-05-06T02:56:44.296Z,63.00
2019-05-06T02:59:12.781Z,63.20
2019-05-06T03:01:38.606Z,63.40
2019-05-06T03:04:05.574Z,63.30
2019-05-06T03:06:33.755Z,63.50
2019-05-06T03:08:59.958Z,63.90
2019-05-06T03:11:26.240Z,63.50
2019-05-06T03:13:53.665Z,63.50
2019-05-06T03:16:23.518Z,63.60
2019-05-06T03:18:48.292Z,63.60
2019-05-06T03:21:16.348Z,63.60
2019-05-06T03:23:44.416Z,63.60
2019-05-06T03:26:13.430Z,63.80
2019-05-06T03:28:38.732Z,63.60
2019-05-06T03:31:06.724Z,63.60
2019-05-06T03:33:50.820Z,63.70
2019-05-06T03:36:15.156Z,63.60
2019-05-06T03:38:29.193Z,63.70
2019-05-06T03:40:55.402Z,63.50
2019-05-06T03:43:23.302Z,63.70
2019-05-06T03:45:53.667Z,63.80
2019-05-06T03:48:24.775Z,63.70
2019-05-06T03:50:55.494Z,63.90
2019-05-06T03:53:19.173Z,63.80
2019-05-06T03:55:47.134Z,63.90
2019-05-06T03:58:15.183Z,64.10
2019-05-06T04:00:43.794Z,64.10
2019-05-06T04:03:09.959Z,64.10
2019-05-06T04:05:36.649Z,64.30
2019-05-06T04:08:03.833Z,64.40
2019-05-06T04:10:33.692Z,64.40
2019-05-06T04:12:59.369Z,64.50
2019-05-06T04:15:27.596Z,64.50
2019-05-06T04:17:58.425Z,64.50
2019-05-06T04:20:26.801Z,64.60
2019-05-06T04:23:06.402Z,64.70
2019-05-06T04:25:52.777Z,64.80
2019-05-06T04:28:23.617Z,64.90
2019-05-06T04:30:49.787Z,64.80
2019-05-06T04:33:17.468Z,64.90
2019-05-06T04:35:44.131Z,64.90
2019-05-06T04:38:13.647Z,64.80
2019-05-06T04:40:39.108Z,64.80
2019-05-06T04:43:05.312Z,64.70
2019-05-06T04:45:33.715Z,64.70
2019-05-06T04:47:59.841Z,64.90
2019-05-06T04:50:26.256Z,64.80
2019-05-06T04:52:54.401Z,64.60
2019-05-06T04:55:22.652Z,65.00
2019-05-06T04:57:48.983Z,64.60
2019-05-06T05:00:15.419Z,64.60
2019-05-06T05:02:43.056Z,64.70
2019-05-06T05:05:10.161Z,64.60
2019-05-06T05:07:36.647Z,64.70
2019-05-06T05:10:05.293Z,64.70
2019-05-06T05:12:39.526Z,64.60
2019-05-06T05:15:11.826Z,64.80
2019-05-06T05:17:46.153Z,64.70
2019-05-06T05:20:12.714Z,64.60
2019-05-06T05:22:39.311Z,64.60
2019-05-06T05:25:06.356Z,64.60
2019-05-06T05:27:33.073Z,64.60
2019-05-06T05:29:59.366Z,64.70
2019-05-06T05:32:27.009Z,64.60
2019-05-06T05:34:53.321Z,64.60
2019-05-06T05:37:19.609Z,64.70
2019-05-06T05:39:46.339Z,64.70
2019-05-06T05:42:17.264Z,65.30
2019-05-06T05:44:45.387Z,64.60
2019-05-06T05:47:12.356Z,64.50
2019-05-06T05:49:42.092Z,64.50
2019-05-06T05:52:08.453Z,64.40
2019-05-06T05:54:34.921Z,64.40
2019-05-06T05:57:02.369Z,64.30
2019-05-06T05:59:29.148Z,64.20
2019-05-06T06:01:55.467Z,64.30
2019-05-06T06:04:22.416Z,64.20
2019-05-06T06:06:48.840Z,64.20
2019-05-06T06:09:15.008Z,64.00
2019-05-06T06:11:48.642Z,64.00
2019-05-06T06:14:33.590Z,63.90
2019-05-06T06:17:02.118Z,63.90
2019-05-06T06:19:33.306Z,63.90
2019-05-06T06:22:02.735Z,63.90
2019-05-06T06:24:32.179Z,64.00
2019-05-06T06:26:58.971Z,63.80
2019-05-06T06:29:25.141Z,63.80
2019-05-06T06:31:53.302Z,63.50
2019-05-06T06:34:27.140Z,63.50
2019-05-06T06:37:07.022Z,63.70
2019-05-06T06:39:35.138Z,63.70
2019-05-06T06:42:02.881Z,63.70
2019-05-06T06:44:32.968Z,63.70
2019-05-06T06:46:59.280Z,63.80
2019-05-06T06:49:25.450Z,63.80
2019-05-06T06:51:53.243Z,63.60
2019-05-06T06:54:19.694Z,63.70
2019-05-06T06:56:47.775Z,63.90
2019-05-06T06:59:29.412Z,63.50
2019-05-06T07:02:14.513Z,63.10
2019-05-06T07:04:43.139Z,63.20
2019-05-06T07:07:12.783Z,62.90
2019-05-06T07:09:37.831Z,62.30
2019-05-06T07:12:04.024Z,62.10
2019-05-06T07:14:32.296Z,62.00
2019-05-06T07:16:58.414Z,62.20
2019-05-06T07:19:26.508Z,61.60
2019-05-06T07:21:56.737Z,61.30
2019-05-06T07:24:23.041Z,61.00
2019-05-06T07:26:52.412Z,60.90
2019-05-06T07:29:23.455Z,60.80
2019-05-06T07:31:46.935Z,59.40
2019-05-06T07:34:13.186Z,59.70
2019-05-06T07:36:39.341Z,59.60
2019-05-06T07:39:05.639Z,59.70
2019-05-06T07:41:46.210Z,59.20
2019-05-06T07:44:22.433Z,58.80
2019-05-06T07:47:08.317Z,58.50
2019-05-06T07:49:34.656Z,57.80
2019-05-06T07:52:02.879Z,57.90
2019-05-06T07:54:29.262Z,57.30
2019-05-06T07:56:55.501Z,57.20
2019-05-06T07:59:22.537Z,56.90
2019-05-06T08:01:49.110Z,56.80
2019-05-06T08:04:15.424Z,57.00
2019-05-06T08:06:42.637Z,57.40
2019-05-06T08:09:09.715Z,57.50
2019-05-06T08:11:36.235Z,56.30
2019-05-06T08:14:03.590Z,56.00
2019-05-06T08:16:31.945Z,55.50
2019-05-06T08:18:58.235Z,55.30
2019-05-06T08:21:26.343Z,54.70
2019-05-06T08:23:53.252Z,54.70
2019-05-06T08:26:19.418Z,54.70
2019-05-06T08:28:45.606Z,54.40
2019-05-06T08:31:12.854Z,54.70
2019-05-06T08:33:39.152Z,54.80
2019-05-06T08:36:11.750Z,54.80
2019-05-06T08:38:37.221Z,54.80
2019-05-06T08:41:03.518Z,54.80
2019-05-06T08:43:29.786Z,54.60
2019-05-06T08:45:56.090Z,54.20
2019-05-06T08:48:22.294Z,54.20
2019-05-06T08:50:50.389Z,53.90
2019-05-06T08:53:18.585Z,53.50
2019-05-06T08:55:46.846Z,53.00
2019-05-06T08:58:14.124Z,53.50
2019-05-06T09:00:57.386Z,52.70
2019-05-06T09:03:22.397Z,52.40
2019-05-06T09:05:54.753Z,52.00
2019-05-06T09:08:22.800Z,52.00
2019-05-06T09:10:51.976Z,52.40
2019-05-06T09:13:17.682Z,52.50
2019-05-06T09:15:43.880Z,52.40
2019-05-06T09:18:12.294Z,52.00
2019-05-06T09:20:38.099Z,51.50
2019-05-06T09:23:04.876Z,50.80
2019-05-06T09:25:32.327Z,50.80
2019-05-06T09:28:06.559Z,50.30
2019-05-06T09:30:46.906Z,49.80
2019-05-06T09:33:15.035Z,49.60
2019-05-06T09:35:42.163Z,49.20
2019-05-06T09:38:08.682Z,49.60
2019-05-06T09:40:34.946Z,50.30
2019-05-06T09:43:04.685Z,49.50
2019-05-06T09:45:29.180Z,48.90
2019-05-06T09:48:04.077Z,48.20
2019-05-06T09:50:37.689Z,48.00
2019-05-06T09:53:03.910Z,48.30
2019-05-06T09:55:35.056Z,48.50
2019-05-06T09:58:03.433Z,48.50
2019-05-06T10:00:33.068Z,47.40
2019-05-06T10:02:59.380Z,48.10
2019-05-06T10:05:25.699Z,47.50
2019-05-06T10:07:52.398Z,47.10
2019-05-06T10:10:18.730Z,46.90
2019-05-06T10:12:45.133Z,46.80
2019-05-06T10:15:12.738Z,47.00
2019-05-06T10:17:39.263Z,47.20
2019-05-06T10:20:05.814Z,47.20
2019-05-06T10:22:32.432Z,47.30
2019-05-06T10:24:58.893Z,47.80
2019-05-06T10:27:25.050Z,48.00
2019-05-06T10:29:53.116Z,47.80
2019-05-06T10:32:38.963Z,47.80
2019-05-06T10:35:06.242Z,47.70
2019-05-06T10:37:52.634Z,48.00
2019-05-06T10:40:32.901Z,47.20
2019-05-06T10:43:27.134Z,46.30
2019-05-06T10:45:53.411Z,46.40
2019-05-06T10:48:19.607Z,46.10
2019-05-06T10:50:47.723Z,45.50
2019-05-06T10:53:15.813Z,45.20
2019-05-06T10:55:43.889Z,45.20
2019-05-06T10:58:10.056Z,44.10
2019-05-06T11:00:36.443Z,44.70
2019-05-06T11:03:07.584Z,43.60
2019-05-06T11:05:33.761Z,43.50
2019-05-06T11:07:59.951Z,42.60
2019-05-06T11:10:31.232Z,42.80
2019-05-06T11:12:54.810Z,42.70
2019-05-06T11:15:23.360Z,42.50
2019-05-06T11:17:49.058Z,43.40
2019-05-06T11:20:15.246Z,42.60
2019-05-06T11:22:43.619Z,42.60
2019-05-06T11:25:09.675Z,42.00
2019-05-06T11:27:39.546Z,41.70
2019-05-06T11:30:07.928Z,41.70
2019-05-06T11:32:44.196Z,42.10
2019-05-06T11:35:12.352Z,41.60
2019-05-06T11:37:51.933Z,41.70
2019-05-06T11:40:17.857Z,42.40
2019-05-06T11:42:44.151Z,42.40
2019-05-06T11:45:12.206Z,43.00
2019-05-06T11:47:38.498Z,43.20
2019-05-06T11:50:06.339Z,42.90
2019-05-06T11:52:34.492Z,42.70
2019-05-06T11:55:02.174Z,42.50
2019-05-06T11:57:28.665Z,43.10
2019-05-06T11:59:54.871Z,43.70
2019-05-06T12:02:25.990Z,43.90
2019-05-06T12:04:52.764Z,43.80
2019-05-06T12:07:19.295Z,43.20
2019-05-06T12:09:45.564Z,43.30
2019-05-06T12:12:12.766Z,44.00
2019-05-06T12:14:39.171Z,42.80
2019-05-06T12:17:05.493Z,41.90
2019-05-06T12:19:32.385Z,41.70
2019-05-06T12:21:58.839Z,40.60
2019-05-06T12:24:25.014Z,41.00
2019-05-06T12:26:52.222Z,41.80
2019-05-06T12:29:18.501Z,41.70
2019-05-06T12:31:46.687Z,42.50
2019-05-06T12:34:14.657Z,42.80
2019-05-06T12:36:42.807Z,42.60
2019-05-06T12:39:17.428Z,42.50
2019-05-06T12:41:44.192Z,42.60
2019-05-06T12:44:13.151Z,43.00
2019-05-06T12:46:42.905Z,43.70
2019-05-06T12:49:08.624Z,46.50
2019-05-06T12:51:34.878Z,47.90
2019-05-06T12:54:03.322Z,49.20
2019-05-06T12:56:29.373Z,50.90
2019-05-06T12:58:55.641Z,52.10
2019-05-06T13:01:21.884Z,51.00
2019-05-06T13:03:48.058Z,47.30
2019-05-06T13:06:14.249Z,45.40
2019-05-06T13:08:56.059Z,45.40
2019-05-06T13:11:08.549Z,44.70
2019-05-06T13:13:34.820Z,45.40
2019-05-06T13:16:02.787Z,45.80
2019-05-06T13:18:29.141Z,45.70
2019-05-06T13:20:55.467Z,45.00
2019-05-06T13:23:35.925Z,44.50
2019-05-06T13:26:02.274Z,44.80
2019-05-06T13:28:30.745Z,43.80
2019-05-06T13:31:13.568Z,43.90
2019-05-06T13:33:34.099Z,43.80
2019-05-06T13:35:59.413Z,44.30
2019-05-06T13:38:25.866Z,47.60
2019-05-06T13:40:57.074Z,46.80
2019-05-06T13:43:23.475Z,42.00
2019-05-06T13:45:54.775Z,41.40
2019-05-06T13:48:23.050Z,38.00
2019-05-06T13:51:07.427Z,34.50
2019-05-06T13:53:39.584Z,34.20
2019-05-06T13:56:04.484Z,32.20
2019-05-06T13:58:32.215Z,31.30
2019-05-06T14:00:59.858Z,28.90
2019-05-06T14:03:26.038Z,27.30
2019-05-06T14:05:52.206Z,28.50
2019-05-06T14:08:18.423Z,29.10
2019-05-06T14:10:56.520Z,30.60
2019-05-06T14:13:12.944Z,32.40
2019-05-06T14:15:39.268Z,33.50
2019-05-06T14:18:05.466Z,34.50
2019-05-06T14:20:33.570Z,35.10
2019-05-06T14:23:02.104Z,35.80
2019-05-06T14:25:46.182Z,36.70
2019-05-06T14:28:14.271Z,37.50
2019-05-06T14:30:43.105Z,38.10
2019-05-06T14:33:12.712Z,38.30
2019-05-06T14:35:39.471Z,38.40
2019-05-06T14:38:05.636Z,38.70
2019-05-06T14:40:33.884Z,39.10
2019-05-06T14:43:02.297Z,39.30
2019-05-06T14:45:28.148Z,39.80
2019-05-06T14:47:54.511Z,40.30
2019-05-06T14:50:29.363Z,40.80
2019-05-06T14:52:48.740Z,41.20
2019-05-06T14:55:16.849Z,42.00
2019-05-06T14:57:43.123Z,42.50
2019-05-06T15:00:12.242Z,43.20
2019-05-06T15:02:38.543Z,43.60
2019-05-06T15:05:05.409Z,44.20
2019-05-06T15:07:32.947Z,44.40
2019-05-06T15:10:16.414Z,44.70
2019-05-06T15:12:27.426Z,45.30
2019-05-06T15:14:53.604Z,45.70
2019-05-06T15:17:19.888Z,45.60
2019-05-06T15:19:46.073Z,45.70
2019-05-06T15:22:12.983Z,46.00
2019-05-06T15:24:39.395Z,46.20
2019-05-06T15:27:05.554Z,46.30
2019-05-06T15:29:31.814Z,46.40
2019-05-06T15:32:02.806Z,46.20
2019-05-06T15:34:33.322Z,46.40
2019-05-06T15:37:02.396Z,46.80
2019-05-06T15:39:28.705Z,46.90
2019-05-06T15:41:54.868Z,47.00
2019-05-06T15:44:23.248Z,47.10
2019-05-06T15:46:49.248Z,47.10
2019-05-06T15:49:15.434Z,47.00
2019-05-06T15:51:42.734Z,46.70
2019-05-06T15:54:09.093Z,46.90
2019-05-06T15:56:35.311Z,47.00
2019-05-06T15:59:02.628Z,47.20
2019-05-06T16:01:29.091Z,47.30
2019-05-06T16:03:55.311Z,47.60
2019-05-06T16:06:22.892Z,47.80
2019-05-06T16:08:49.476Z,48.10
2019-05-06T16:11:15.683Z,48.30
2019-05-06T16:13:42.120Z,48.80
2019-05-06T16:16:10.036Z,49.10
2019-05-06T16:18:36.232Z,49.50
2019-05-06T16:21:02.955Z,49.60
2019-05-06T16:23:33.071Z,49.70
2019-05-06T16:25:59.322Z,49.80
2019-05-06T16:28:25.727Z,50.20
2019-05-06T16:30:53.469Z,50.20
2019-05-06T16:33:21.917Z,50.70
2019-05-06T16:35:48.055Z,50.90
2019-05-06T16:38:14.253Z,51.20
2019-05-06T16:40:42.644Z,51.30
2019-05-06T16:43:08.621Z,51.50
2019-05-06T16:45:34.853Z,51.60
2019-05-06T16:48:01.049Z,51.90
2019-05-06T16:50:29.616Z,51.90
2019-05-06T16:52:55.397Z,52.20
2019-05-06T16:55:42.525Z,52.90
2019-05-06T16:58:10.872Z,52.90
2019-05-06T17:00:37.769Z,52.90
2019-05-06T17:03:05.870Z,53.30
2019-05-06T17:05:42.986Z,53.60
2019-05-06T17:08:09.407Z,54.40
2019-05-06T17:10:35.947Z,54.10
2019-05-06T17:13:03.041Z,54.10
2019-05-06T17:15:29.485Z,54.20
2019-05-06T17:17:55.670Z,54.40
2019-05-06T17:20:22.750Z,54.60
2019-05-06T17:22:49.145Z,55.00
2019-05-06T17:25:15.644Z,55.00
2019-05-06T17:27:43.505Z,55.20
2019-05-06T17:30:23.239Z,55.40
2019-05-06T17:32:52.599Z,55.30
2019-05-06T17:35:18.969Z,55.30
2019-05-06T17:37:53.064Z,55.80
2019-05-06T17:40:23.006Z,56.90
2019-05-06T17:42:49.868Z,57.50
2019-05-06T17:45:35.956Z,57.60
2019-05-06T17:48:20.417Z,57.90
2019-05-06T17:51:04.942Z,58.10
2019-05-06T17:53:33.995Z,58.30
2019-05-06T17:55:59.458Z,57.70
2019-05-06T17:58:25.753Z,57.60
2019-05-06T18:00:52.263Z,57.40
2019-05-06T18:03:18.735Z,57.60
2019-05-06T18:05:45.069Z,57.60
2019-05-06T18:08:12.852Z,57.80
2019-05-06T18:10:39.579Z,57.90
2019-05-06T18:13:07.412Z,58.30
2019-05-06T18:15:33.809Z,58.30
2019-05-06T18:18:02.021Z,58.40
2019-05-06T18:20:28.097Z,58.30
2019-05-06T18:22:54.307Z,58.40
2019-05-06T18:25:22.906Z,58.80
2019-05-06T18:27:48.698Z,58.90
2019-05-06T18:30:23.228Z,59.90
2019-05-06T18:32:43.257Z,60.10
2019-05-06T18:35:09.610Z,60.20
2019-05-06T18:37:36.135Z,60.10
2019-05-06T18:40:03.145Z,60.30
2019-05-06T18:42:29.572Z,60.40
2019-05-06T18:44:55.905Z,60.80
2019-05-06T18:47:22.172Z,61.20
2019-05-06T18:49:48.463Z,61.20
2019-05-06T18:52:14.702Z,61.20
2019-05-06T18:54:42.930Z,61.40
2019-05-06T18:57:09.597Z,61.60
2019-05-06T18:59:37.123Z,61.40
2019-05-06T19:02:03.551Z,61.40
2019-05-06T19:04:34.230Z,61.60
2019-05-06T19:07:10.676Z,61.50
2019-05-06T19:09:39.798Z,61.90
2019-05-06T19:12:05.981Z,62.00
2019-05-06T19:14:33.037Z,62.10
2019-05-06T19:16:59.548Z,62.70
2019-05-06T19:19:25.837Z,62.00
2019-05-06T19:21:52.456Z,62.40
2019-05-06T19:24:18.817Z,62.70
2019-05-06T19:26:45.110Z,63.10
2019-05-06T19:29:12.313Z,63.20
2019-05-06T19:31:38.748Z,63.40
2019-05-06T19:34:04.924Z,63.40
2019-05-06T19:36:34.188Z,63.50
2019-05-06T19:38:59.380Z,63.30
2019-05-06T19:41:25.744Z,63.40
2019-05-06T19:43:52.480Z,63.50
2019-05-06T19:46:18.828Z,63.70
2019-05-06T19:48:45.059Z,63.80
2019-05-06T19:51:11.364Z,64.80
2019-05-06T19:53:37.567Z,64.20
2019-05-06T19:56:04.994Z,64.30
2019-05-06T19:58:31.690Z,64.40
2019-05-06T20:00:59.459Z,64.40
2019-05-06T20:03:25.671Z,64.60
2019-05-06T20:05:54.420Z,64.60
2019-05-06T20:08:23.169Z,64.60
2019-05-06T20:10:56.222Z,64.80
2019-05-06T20:13:23.196Z,64.70
2019-05-06T20:15:49.502Z,64.90
2019-05-06T20:18:15.784Z,65.00
2019-05-06T20:20:42.549Z,65.10
2019-05-06T20:23:08.940Z,65.00
2019-05-06T20:25:37.099Z,65.10
2019-05-06T20:28:03.515Z,65.20
2019-05-06T20:30:30.004Z,65.30
2019-05-06T20:32:56.210Z,65.60
2019-05-06T20:35:22.636Z,65.50
2019-05-06T20:37:48.901Z,65.80
2019-05-06T20:40:16.196Z,65.80
2019-05-06T20:42:42.696Z,65.90
2019-05-06T20:45:09.140Z,66.20
2019-05-06T20:47:35.428Z,66.30
2019-05-06T20:50:03.305Z,66.20
2019-05-06T20:52:30.568Z,66.40
2019-05-06T20:54:57.601Z,66.30
2019-05-06T20:57:23.803Z,66.40
2019-05-06T20:59:49.982Z,66.60
2019-05-06T21:02:16.163Z,66.60
2019-05-06T21:04:43.182Z,66.80
2019-05-06T21:07:09.521Z,66.60
2019-05-06T21:09:36.804Z,66.70
2019-05-06T21:12:03.090Z,66.60
2019-05-06T21:14:29.366Z,66.80
2019-05-06T21:16:55.528Z,66.70
2019-05-06T21:19:22.376Z,66.90
2019-05-06T21:21:48.674Z,67.00
2019-05-06T21:24:14.864Z,67.10
2019-05-06T21:26:42.883Z,67.10
2019-05-06T21:29:09.217Z,67.10
2019-05-06T21:31:35.396Z,67.10
2019-05-06T21:34:01.606Z,67.00
2019-05-06T21:36:27.856Z,67.10
2019-05-06T21:38:54.066Z,67.20
2019-05-06T21:41:22.161Z,67.40
2019-05-06T21:43:50.146Z,67.40
2019-05-06T21:46:16.559Z,67.40
2019-05-06T21:48:42.822Z,67.50
2019-05-06T21:51:09.001Z,67.40
2019-05-06T21:53:35.190Z,67.60
2019-05-06T21:56:02.209Z,67.50
2019-05-06T21:58:28.546Z,67.60
2019-05-06T22:00:56.938Z,67.60
2019-05-06T22:03:23.141Z,67.80
2019-05-06T22:05:49.393Z,67.80
2019-05-06T22:08:15.572Z,68.00
2019-05-06T22:10:42.266Z,68.00
2019-05-06T22:13:08.630Z,68.00
2019-05-06T22:15:35.121Z,68.00
2019-05-06T22:18:02.554Z,68.20
2019-05-06T22:20:32.753Z,68.20
2019-05-06T22:22:58.979Z,68.30
2019-05-06T22:25:25.287Z,68.40
2019-05-06T22:27:52.027Z,68.30
2019-05-06T22:30:18.651Z,68.50
2019-05-06T22:32:45.120Z,68.40
2019-05-06T22:35:13.970Z,68.80
2019-05-06T22:37:42.215Z,68.60
2019-05-06T22:40:08.251Z,68.70
2019-05-06T22:42:34.416Z,68.70
2019-05-06T22:45:01.949Z,68.90
2019-05-06T22:47:28.237Z,69.50
2019-05-06T22:49:54.495Z,69.00
2019-05-06T22:52:20.972Z,68.90
2019-05-06T22:54:47.369Z,69.70
2019-05-06T22:57:13.549Z,69.00
2019-05-06T22:59:39.760Z,68.90
2019-05-06T23:02:07.839Z,69.10
2019-05-06T23:04:38.947Z,69.30
2019-05-06T23:07:05.150Z,69.30
2019-05-06T23:09:32.583Z,69.50
2019-05-06T23:11:59.058Z,69.40
2019-05-06T23:14:31.404Z,69.50
2019-05-06T23:16:53.323Z,69.40
2019-05-06T23:19:19.459Z,69.40
2019-05-06T23:21:45.661Z,69.50
2019-05-06T23:24:13.153Z,69.50
2019-05-06T23:26:39.683Z,69.50
2019-05-06T23:29:05.905Z,69.40
2019-05-06T23:31:33.277Z,69.30
2019-05-06T23:33:59.842Z,69.20
2019-05-06T23:36:29.822Z,69.20
2019-05-06T23:39:35.569Z,69.20
2019-05-06T23:42:41.843Z,69.10
2019-05-06T23:45:45.410Z,69.20
2019-05-06T23:48:49.216Z,69.50
2019-05-06T23:51:53.280Z,69.50
2019-05-06T23:54:57.423Z,69.30
2019-05-06T23:57:24.901Z,69.30
2019-05-06T23:59:51.858Z,69.30
